Airport View

Enter AWOS ICAO identifier for current METAR.

ex. KFNL

KFOD 201156Z AUTO 12007KT 10SM OVC090 03/02 A2998 RMK AO2 SLP191 T00330017 10033 21006 56009

20 Nov 2019 12:14

Frequency: 118.775

Phone: 515-955-5490

Other Area AWOS: KEBS - KCAV - KAXA - KBNW

TAF KFOD 201138Z 2012/2112 12008KT P6SM OVC080 FM202300 15012G23KT P6SM OVC060 WS020/17045KT FM210200 15011G21KT 6SM -RA OVC025 WS020/18040KT FM210600 17010G20KT 3SM -RA OVC004 FM210900 20009KT 3SM -RA OVC008